Disclaimer

Please do not use the information listed here in-flight or in-navigation, as they are not provided to us by the airports but are provided by volunteers, so they might be outdated.

Search


Regions


Airport information page

Radio informations:
CAJAMARCA TWR - 118.1 MHz

Airport informations:
Latitude: 07° 08' 21.06" S
Longitude: 078° 29' 21.84" W
Elevation: 8781 feet - 2676 meters
Operating hours: N/A
Operating agency: Civil government, landing fees and diplomatic clearance may be required
Timezone: UTC-5
Fuel: N/A

Runway information:
16/34 - 8202 x 148 feet< - >2500 x 45 meters

Recent METARs:
SPJR 211000Z 00000KT 7000 -RABR SCT020 OVC033 13/12 Q1027 RMK PP004
SPJR 211030Z 19002KT 4000 -RABR SCT015 OVC033 13/12 Q1027
SPJR 211100Z 19002KT 5000 -RABR SCT020 OVC040 12/12 Q1028 RMK PP010

Airport on the map: